Time;durP1;ratioP1;P1;durP2;ratioP2;P2;SDS_P1;SDS_P2;PMS_P1;PMS_P2;Temp;Humidity;BMP_temperature;BMP_pressure;BME280_temperature;BME280_humidity;BME280_pressure;Samples;Min_cycle;Max_cycle;Signal;HPM_P1;HPM_P2
2023/05/18 00:02:08;;;;;;;3.55;2.38;;;;;;;;;;4994953;28;20105;-23
2023/05/18 00:04:34;;;;;;;3.83;2.85;;;;;;;;;;4994866;28;20488;-23
2023/05/18 00:07:05;;;;;;;3.78;2.72;;;;;;;;;;4995111;28;20026;-24
2023/05/18 00:09:32;;;;;;;5.68;2.15;;;;;;;;;;4995362;28;20022;-26
2023/05/18 00:11:59;;;;;;;4.82;2.40;;;;;;;;;;4995248;28;20030;-25
2023/05/18 00:14:25;;;;;;;2.63;2.40;;;;;;;;;;4995948;28;20027;-21
2023/05/18 00:16:52;;;;;;;4.10;2.55;;;;;;;;;;4998986;28;20026;-27
2023/05/18 00:19:19;;;;;;;3.03;2.53;;;;;;;;;;4999109;28;20030;-24
2023/05/18 00:21:46;;;;;;;3.13;2.45;;;;;;;;;;4999044;28;20030;-23
2023/05/18 00:24:12;;;;;;;5.43;2.60;;;;;;;;;;4998857;28;20030;-25
2023/05/18 00:26:39;;;;;;;3.88;2.30;;;;;;;;;;4998768;28;20106;-24
2023/05/18 00:29:05;;;;;;;3.35;2.17;;;;;;;;;;4981594;28;20038;-29
2023/05/18 00:31:35;;;;;;;4.97;2.50;;;;;;;;;;4999447;28;20050;-26
2023/05/18 00:34:04;;;;;;;3.97;2.50;;;;;;;;;;4998568;28;20028;-22
2023/05/18 00:36:30;;;;;;;6.38;2.72;;;;;;;;;;4998849;28;20019;-27
2023/05/18 00:38:57;;;;;;;3.42;2.17;;;;;;;;;;4998528;28;20093;-24
2023/05/18 00:41:25;;;;;;;4.28;2.40;;;;;;;;;;4998410;28;20100;-28
2023/05/18 00:43:51;;;;;;;7.28;3.03;;;;;;;;;;4981184;28;20498;-25
2023/05/18 00:46:17;;;;;;;3.03;2.50;;;;;;;;;;4981202;28;20431;-26
2023/05/18 00:48:44;;;;;;;4.57;2.15;;;;;;;;;;4998307;28;20061;-23
2023/05/18 00:51:10;;;;;;;5.78;2.70;;;;;;;;;;4998592;28;20061;-22
2023/05/18 00:53:37;;;;;;;4.78;2.15;;;;;;;;;;4998166;28;20022;-23
2023/05/18 00:56:03;;;;;;;2.40;2.20;;;;;;;;;;4998258;28;20058;-23
2023/05/18 00:58:30;;;;;;;4.55;3.40;;;;;;;;;;4998436;28;20022;-22
2023/05/18 01:00:56;;;;;;;2.70;2.17;;;;;;;;;;4998368;28;20349;-25
2023/05/18 01:03:23;;;;;;;4.18;2.83;;;;;;;;;;4997806;28;20041;-26
2023/05/18 01:05:54;;;;;;;4.55;2.83;;;;;;;;;;4998376;28;20026;-24
2023/05/18 01:08:21;;;;;;;3.75;2.75;;;;;;;;;;4998307;28;20033;-23
2023/05/18 01:10:51;;;;;;;4.00;2.72;;;;;;;;;;4998006;28;20114;-24
2023/05/18 01:13:30;;;;;;;3.57;2.03;;;;;;;;;;4980776;28;20046;-23
2023/05/18 01:15:58;;;;;;;3.67;2.53;;;;;;;;;;4998171;28;20280;-24
2023/05/18 01:18:31;;;;;;;3.28;2.20;;;;;;;;;;4998130;28;20026;-24
2023/05/18 01:20:58;;;;;;;6.25;2.97;;;;;;;;;;4997971;28;20026;-23
2023/05/18 01:23:43;;;;;;;7.90;2.97;;;;;;;;;;4997670;28;20049;-25
2023/05/18 01:26:36;;;;;;;6.28;3.20;;;;;;;;;;4997133;28;20031;-23
2023/05/18 01:29:06;;;;;;;5.45;2.50;;;;;;;;;;4997976;28;20173;-23
2023/05/18 01:31:32;;;;;;;3.00;2.50;;;;;;;;;;4997935;28;20097;-25
2023/05/18 01:33:58;;;;;;;3.13;2.72;;;;;;;;;;4980335;28;20358;-24
2023/05/18 01:36:24;;;;;;;3.67;2.13;;;;;;;;;;4997507;28;20030;-24
2023/05/18 01:38:51;;;;;;;8.60;2.50;;;;;;;;;;4997485;28;20419;-23
2023/05/18 01:41:17;;;;;;;3.80;2.38;;;;;;;;;;4997890;28;20053;-24
2023/05/18 01:44:01;;;;;;;3.47;2.20;;;;;;;;;;4997462;28;20106;-23
2023/05/18 01:46:33;;;;;;;2.13;1.85;;;;;;;;;;4997532;28;20030;-25
2023/05/18 01:49:09;;;;;;;3.00;2.10;;;;;;;;;;4980182;28;20353;-25
2023/05/18 01:51:37;;;;;;;6.38;2.35;;;;;;;;;;4997527;28;20026;-24
2023/05/18 01:54:05;;;;;;;4.03;2.58;;;;;;;;;;4997389;28;20034;-26
2023/05/18 01:56:32;;;;;;;4.90;1.98;;;;;;;;;;4997399;28;20041;-23
2023/05/18 01:58:59;;;;;;;2.35;2.00;;;;;;;;;;4997322;28;20103;-25
2023/05/18 02:01:25;;;;;;;2.65;2.25;;;;;;;;;;4996992;28;20034;-25
2023/05/18 02:03:51;;;;;;;2.25;2.05;;;;;;;;;;4996788;28;20046;-23
2023/05/18 02:06:17;;;;;;;3.20;2.35;;;;;;;;;;4996926;28;20081;-22
2023/05/18 02:08:43;;;;;;;2.88;2.42;;;;;;;;;;4996901;28;20061;-26
2023/05/18 02:11:09;;;;;;;2.35;2.15;;;;;;;;;;4996830;28;20053;-23
2023/05/18 02:13:36;;;;;;;6.90;3.13;;;;;;;;;;4996765;28;20050;-26
2023/05/18 02:16:05;;;;;;;5.18;2.03;;;;;;;;;;4996824;28;20327;-22
2023/05/18 02:18:35;;;;;;;3.70;1.88;;;;;;;;;;4996970;28;20358;-24
2023/05/18 02:21:02;;;;;;;2.55;2.20;;;;;;;;;;4996557;28;20041;-23
2023/05/18 02:23:29;;;;;;;6.38;2.67;;;;;;;;;;4996526;28;20354;-24
2023/05/18 02:25:55;;;;;;;3.78;2.42;;;;;;;;;;4996825;28;20036;-23
2023/05/18 02:28:21;;;;;;;4.18;2.08;;;;;;;;;;4996813;28;20077;-27
2023/05/18 02:30:48;;;;;;;5.50;2.00;;;;;;;;;;4996478;28;20045;-22
2023/05/18 02:33:14;;;;;;;3.58;2.33;;;;;;;;;;4996613;28;20053;-26
2023/05/18 02:35:40;;;;;;;3.80;2.25;;;;;;;;;;4996372;28;20046;-25
2023/05/18 02:38:06;;;;;;;4.38;3.17;;;;;;;;;;4978318;28;20125;-24
2023/05/18 02:40:32;;;;;;;3.30;1.85;;;;;;;;;;4996476;28;20036;-23
2023/05/18 02:42:58;;;;;;;5.75;2.17;;;;;;;;;;4996150;28;20046;-25
2023/05/18 02:45:25;;;;;;;5.78;2.30;;;;;;;;;;4996461;28;20112;-26
2023/05/18 02:47:51;;;;;;;2.88;1.88;;;;;;;;;;4996121;28;20077;-21
2023/05/18 02:50:17;;;;;;;3.25;1.98;;;;;;;;;;4996149;28;20458;-25
2023/05/18 02:52:44;;;;;;;4.60;2.10;;;;;;;;;;4996226;28;20042;-25
2023/05/18 02:55:12;;;;;;;2.10;1.88;;;;;;;;;;4996287;28;20413;-22
2023/05/18 02:57:38;;;;;;;2.63;1.75;;;;;;;;;;4995910;28;20034;-22
2023/05/18 03:00:11;;;;;;;4.65;3.03;;;;;;;;;;4996124;28;20331;-26
2023/05/18 03:02:39;;;;;;;3.58;2.20;;;;;;;;;;4996114;28;20026;-23
2023/05/18 03:05:05;;;;;;;4.68;2.90;;;;;;;;;;4995660;28;20125;-24
2023/05/18 03:07:31;;;;;;;4.40;1.92;;;;;;;;;;4996348;28;20080;-20
2023/05/18 03:09:58;;;;;;;4.72;2.13;;;;;;;;;;4996027;28;20029;-20
2023/05/18 03:12:24;;;;;;;3.05;1.95;;;;;;;;;;4995690;28;20026;-23
2023/05/18 03:14:50;;;;;;;3.83;2.53;;;;;;;;;;4995970;28;20061;-26
2023/05/18 03:17:16;;;;;;;2.05;1.67;;;;;;;;;;4995677;28;20049;-22
2023/05/18 03:19:42;;;;;;;1.90;1.80;;;;;;;;;;4995584;28;20034;-26
2023/05/18 03:22:08;;;;;;;5.25;2.33;;;;;;;;;;4995471;28;20339;-26
2023/05/18 03:24:39;;;;;;;4.72;2.13;;;;;;;;;;4995775;28;20022;-24
2023/05/18 03:27:06;;;;;;;2.40;2.07;;;;;;;;;;4995834;28;20433;-21
2023/05/18 03:29:33;;;;;;;3.20;1.98;;;;;;;;;;4995728;28;20253;-29
2023/05/18 03:31:59;;;;;;;3.17;1.98;;;;;;;;;;4995366;28;20030;-21
2023/05/18 03:34:25;;;;;;;2.65;1.95;;;;;;;;;;4995656;28;20022;-21
2023/05/18 03:36:53;;;;;;;2.40;2.20;;;;;;;;;;4995642;28;20022;-23
2023/05/18 03:39:20;;;;;;;1.98;1.77;;;;;;;;;;4995607;28;20038;-23
2023/05/18 03:41:46;;;;;;;1.88;1.60;;;;;;;;;;4995220;28;20018;-21
2023/05/18 03:44:12;;;;;;;3.05;2.17;;;;;;;;;;4995293;28;20048;-28
2023/05/18 03:46:38;;;;;;;1.75;1.65;;;;;;;;;;4995270;28;20026;-24
2023/05/18 03:49:06;;;;;;;6.32;3.35;;;;;;;;;;4995291;28;20362;-23
2023/05/18 03:51:32;;;;;;;2.80;2.03;;;;;;;;;;4995230;28;20037;-25
2023/05/18 03:53:58;;;;;;;3.45;1.83;;;;;;;;;;4995142;28;20343;-23
2023/05/18 03:56:25;;;;;;;2.63;2.03;;;;;;;;;;4995175;28;20516;-26
2023/05/18 03:58:51;;;;;;;2.95;2.08;;;;;;;;;;4995413;28;20044;-30
2023/05/18 04:01:18;;;;;;;2.83;1.90;;;;;;;;;;4995094;28;20027;-24
2023/05/18 04:03:44;;;;;;;2.35;1.70;;;;;;;;;;4994845;28;20046;-23
2023/05/18 04:06:12;;;;;;;2.45;2.25;;;;;;;;;;4979403;28;20403;-23
2023/05/18 04:08:39;;;;;;;3.75;1.83;;;;;;;;;;4995314;28;20390;-25
2023/05/18 04:11:05;;;;;;;2.80;2.58;;;;;;;;;;4995287;28;20089;-27
2023/05/18 04:13:31;;;;;;;4.55;1.90;;;;;;;;;;4994889;28;20030;-21
2023/05/18 04:15:58;;;;;;;2.20;1.70;;;;;;;;;;4995030;28;20057;-22
2023/05/18 04:18:28;;;;;;;2.08;1.63;;;;;;;;;;4977842;28;20045;-23
2023/05/18 04:20:55;;;;;;;2.28;2.05;;;;;;;;;;4995165;28;20057;-22
2023/05/18 04:23:21;;;;;;;5.53;2.08;;;;;;;;;;4994896;28;20027;-25
2023/05/18 04:25:48;;;;;;;1.88;1.70;;;;;;;;;;4994842;28;20022;-23
2023/05/18 04:28:15;;;;;;;5.53;2.00;;;;;;;;;;4995147;28;20441;-26
2023/05/18 04:30:41;;;;;;;6.38;2.90;;;;;;;;;;4994800;28;20031;-23
2023/05/18 04:33:07;;;;;;;2.20;2.00;;;;;;;;;;4994738;28;20043;-26
2023/05/18 04:35:33;;;;;;;3.92;1.42;;;;;;;;;;4994837;28;20026;-25
2023/05/18 04:38:01;;;;;;;3.88;2.15;;;;;;;;;;4994813;28;20026;-30
2023/05/18 04:40:27;;;;;;;2.28;1.85;;;;;;;;;;4994981;28;20034;-25
2023/05/18 04:42:53;;;;;;;5.07;2.30;;;;;;;;;;4994716;28;20093;-24
2023/05/18 04:45:20;;;;;;;2.47;2.10;;;;;;;;;;4995039;28;20023;-23
2023/05/18 04:47:51;;;;;;;3.55;1.75;;;;;;;;;;4995012;28;20046;-22
2023/05/18 04:50:17;;;;;;;;;;;;;;;;;;4995426;28;20026;-21
2023/05/18 04:52:47;;;;;;;1.83;1.73;;;;;;;;;;4994797;28;19910;-23
2023/05/18 04:55:21;;;;;;;3.47;1.50;;;;;;;;;;4994963;28;20092;-23
2023/05/18 04:57:49;;;;;;;2.03;1.83;;;;;;;;;;4994969;28;20023;-22
2023/05/18 05:00:16;;;;;;;4.13;2.17;;;;;;;;;;4994968;28;20037;-25
2023/05/18 05:02:42;;;;;;;3.13;1.85;;;;;;;;;;4998091;28;20098;-23
2023/05/18 05:05:08;;;;;;;2.35;2.13;;;;;;;;;;4998080;28;20057;-23
2023/05/18 05:07:34;;;;;;;3.67;2.15;;;;;;;;;;4998360;28;20028;-26
2023/05/18 05:10:00;;;;;;;5.03;2.20;;;;;;;;;;4998064;28;20033;-28
2023/05/18 05:12:26;;;;;;;2.28;2.08;;;;;;;;;;4997951;28;20101;-24
2023/05/18 05:14:53;;;;;;;3.75;2.10;;;;;;;;;;4998220;28;20154;-25
2023/05/18 05:17:19;;;;;;;2.50;2.00;;;;;;;;;;4998441;28;20097;-22
2023/05/18 05:19:45;;;;;;;4.50;1.80;;;;;;;;;;4998075;28;20029;-24
2023/05/18 05:22:11;;;;;;;2.70;2.50;;;;;;;;;;4997648;28;20084;-25
2023/05/18 05:24:37;;;;;;;2.28;1.80;;;;;;;;;;4998024;28;20472;-25
2023/05/18 05:27:03;;;;;;;3.17;2.38;;;;;;;;;;4980564;28;20425;-25
2023/05/18 05:29:30;;;;;;;2.10;1.90;;;;;;;;;;4998236;28;20027;-22
2023/05/18 05:31:56;;;;;;;2.33;1.88;;;;;;;;;;4997529;28;20022;-22
2023/05/18 05:34:22;;;;;;;2.33;2.10;;;;;;;;;;4997539;28;20053;-24
2023/05/18 05:36:48;;;;;;;2.05;1.67;;;;;;;;;;4997551;28;20023;-24
2023/05/18 05:39:14;;;;;;;3.58;2.95;;;;;;;;;;4980372;28;20496;-24
2023/05/18 05:41:40;;;;;;;2.90;1.88;;;;;;;;;;4997633;28;20044;-25
2023/05/18 05:44:06;;;;;;;2.38;2.08;;;;;;;;;;4997345;28;20030;-21
2023/05/18 05:46:32;;;;;;;3.47;2.35;;;;;;;;;;4997306;28;20022;-25
2023/05/18 05:49:00;;;;;;;2.45;1.80;;;;;;;;;;4997323;28;20038;-26
2023/05/18 05:51:26;;;;;;;2.28;1.83;;;;;;;;;;4997811;28;20018;-22
2023/05/18 05:53:53;;;;;;;2.63;2.17;;;;;;;;;;4997159;28;20113;-23
2023/05/18 05:56:19;;;;;;;1.58;1.48;;;;;;;;;;4997691;28;20088;-25
2023/05/18 05:58:45;;;;;;;3.00;2.08;;;;;;;;;;4997327;28;20112;-25
2023/05/18 06:03:47;;;;;;;3.75;2.03;;;;;;;;;;5163863;22;20527;-31
2023/05/18 06:06:14;;;;;;;3.60;2.10;;;;;;;;;;4997042;28;20081;-31
2023/05/18 06:08:40;;;;;;;2.03;1.83;;;;;;;;;;4997165;28;20026;-31
2023/05/18 06:11:06;;;;;;;2.50;1.83;;;;;;;;;;4996954;28;20030;-30
2023/05/18 06:13:32;;;;;;;2.47;1.83;;;;;;;;;;4996758;28;20026;-29
2023/05/18 06:15:58;;;;;;;4.93;2.40;;;;;;;;;;4996862;28;20080;-27
2023/05/18 06:18:25;;;;;;;2.22;2.00;;;;;;;;;;4997072;28;20037;-32
2023/05/18 06:20:51;;;;;;;2.00;1.70;;;;;;;;;;4997213;28;20033;-30
2023/05/18 06:23:22;;;;;;;2.60;2.10;;;;;;;;;;4996643;28;20018;-30
2023/05/18 06:25:48;;;;;;;;;;;;;;;;;;4997375;28;20512;-32
2023/05/18 06:28:14;;;;;;;3.17;2.25;;;;;;;;;;4996668;28;19909;-30
2023/05/18 06:30:41;;;;;;;4.13;2.13;;;;;;;;;;4996842;28;20062;-31
2023/05/18 06:33:07;;;;;;;1.83;1.73;;;;;;;;;;4979365;28;20062;-31
2023/05/18 06:35:33;;;;;;;2.30;1.88;;;;;;;;;;4996483;28;20030;-28
2023/05/18 06:37:59;;;;;;;2.33;2.08;;;;;;;;;;4996693;28;20026;-30
2023/05/18 06:40:25;;;;;;;3.78;1.70;;;;;;;;;;4996312;28;20027;-30
2023/05/18 06:42:52;;;;;;;1.98;1.63;;;;;;;;;;4996552;28;20019;-28
2023/05/18 06:45:18;;;;;;;2.58;2.15;;;;;;;;;;4996266;28;20030;-31
2023/05/18 06:47:45;;;;;;;2.35;1.90;;;;;;;;;;4996206;28;20022;-28
2023/05/18 06:50:11;;;;;;;2.40;1.65;;;;;;;;;;4996450;28;20105;-30
2023/05/18 06:52:37;;;;;;;2.28;1.75;;;;;;;;;;4996219;28;20027;-30
2023/05/18 06:55:04;;;;;;;1.73;1.60;;;;;;;;;;4996127;28;20018;-31
2023/05/18 06:57:30;;;;;;;2.50;1.85;;;;;;;;;;4996754;28;20026;-31
2023/05/18 06:59:57;;;;;;;2.35;1.90;;;;;;;;;;4979150;28;20057;-29
2023/05/18 07:02:23;;;;;;;2.10;1.90;;;;;;;;;;4995663;28;20062;-31
2023/05/18 07:04:49;;;;;;;4.43;1.83;;;;;;;;;;4978818;28;20105;-29
2023/05/18 07:07:15;;;;;;;3.30;1.80;;;;;;;;;;4995897;28;20057;-32
2023/05/18 07:09:44;;;;;;;2.50;1.88;;;;;;;;;;4996074;28;20022;-30
2023/05/18 07:12:10;;;;;;;2.10;1.90;;;;;;;;;;4978595;28;20105;-30
2023/05/18 07:14:36;;;;;;;1.88;1.73;;;;;;;;;;4996018;28;20030;-31
2023/05/18 07:17:03;;;;;;;1.77;1.67;;;;;;;;;;4978591;28;20027;-30
2023/05/18 07:19:29;;;;;;;2.40;1.63;;;;;;;;;;4995685;28;20037;-29
2023/05/18 07:21:55;;;;;;;2.00;1.80;;;;;;;;;;4978401;28;20110;-31
2023/05/18 07:24:22;;;;;;;2.35;2.15;;;;;;;;;;4995416;28;20022;-27
2023/05/18 07:26:48;;;;;;;1.83;1.55;;;;;;;;;;4995837;28;20035;-29
2023/05/18 07:29:14;;;;;;;2.00;1.80;;;;;;;;;;4995555;28;20101;-30
2023/05/18 07:31:40;;;;;;;3.53;1.80;;;;;;;;;;4995739;28;20030;-29
2023/05/18 07:34:07;;;;;;;2.70;1.92;;;;;;;;;;4995639;28;20034;-30
2023/05/18 07:36:33;;;;;;;2.03;1.65;;;;;;;;;;4995493;28;20117;-28
2023/05/18 07:38:59;;;;;;;2.55;1.40;;;;;;;;;;4995671;28;20038;-29
2023/05/18 07:41:27;;;;;;;2.92;2.17;;;;;;;;;;4995233;28;20113;-31
2023/05/18 07:43:53;;;;;;;3.20;1.75;;;;;;;;;;4995171;28;20092;-29
2023/05/18 07:46:19;;;;;;;3.17;2.17;;;;;;;;;;4995883;28;20077;-31
2023/05/18 07:48:45;;;;;;;2.35;1.98;;;;;;;;;;4995331;28;20183;-30
2023/05/18 07:51:12;;;;;;;3.53;1.98;;;;;;;;;;4995310;28;20022;-28
2023/05/18 07:53:39;;;;;;;2.33;1.90;;;;;;;;;;4995214;28;20053;-32
2023/05/18 07:56:07;;;;;;;2.22;2.00;;;;;;;;;;4995206;28;20190;-31
2023/05/18 07:58:36;;;;;;;3.13;1.80;;;;;;;;;;4995140;28;20031;-27
2023/05/18 08:01:03;;;;;;;2.25;2.05;;;;;;;;;;4995112;28;20457;-30
2023/05/18 08:03:29;;;;;;;1.77;1.52;;;;;;;;;;4994899;28;20069;-30
2023/05/18 08:05:55;;;;;;;2.88;2.00;;;;;;;;;;4995193;28;20019;-32
2023/05/18 08:08:21;;;;;;;2.20;2.00;;;;;;;;;;4995408;28;20025;-31
2023/05/18 08:10:47;;;;;;;2.05;1.90;;;;;;;;;;4995119;28;20026;-30
2023/05/18 08:13:14;;;;;;;2.35;1.75;;;;;;;;;;4995091;28;20030;-27
2023/05/18 08:15:40;;;;;;;2.35;2.08;;;;;;;;;;4995325;28;20120;-27
2023/05/18 08:18:06;;;;;;;2.55;1.83;;;;;;;;;;4995327;28;20027;-30
2023/05/18 08:20:32;;;;;;;2.97;1.80;;;;;;;;;;4995190;28;20022;-30
2023/05/18 08:22:58;;;;;;;2.20;1.85;;;;;;;;;;4995216;28;20100;-28
2023/05/18 08:25:24;;;;;;;2.05;1.85;;;;;;;;;;4995239;28;20117;-31
2023/05/18 08:27:50;;;;;;;2.50;1.88;;;;;;;;;;4994948;28;20033;-40
2023/05/18 08:30:20;;;;;;;2.10;1.90;;;;;;;;;;4995202;28;20322;-29
2023/05/18 08:32:46;;;;;;;1.67;1.58;;;;;;;;;;4994700;28;20041;-29
2023/05/18 08:35:12;;;;;;;1.92;1.80;;;;;;;;;;4994991;28;20477;-30
2023/05/18 08:37:38;;;;;;;2.20;2.00;;;;;;;;;;4998709;28;20076;-28
2023/05/18 08:40:09;;;;;;;3.90;1.73;;;;;;;;;;4998644;28;20410;-30
2023/05/18 08:42:59;;;;;;;2.20;2.00;;;;;;;;;;4998493;28;20169;-29
2023/05/18 08:45:28;;;;;;;2.40;2.20;;;;;;;;;;4998850;28;20406;-30
2023/05/18 08:47:58;;;;;;;4.18;2.17;;;;;;;;;;4981352;28;20096;-29
2023/05/18 08:50:25;;;;;;;1.77;1.65;;;;;;;;;;4998441;28;20097;-30
2023/05/18 08:52:54;;;;;;;2.97;1.88;;;;;;;;;;4998294;28;20442;-31
2023/05/18 08:55:22;;;;;;;2.30;2.10;;;;;;;;;;4998413;28;20050;-31
2023/05/18 08:57:54;;;;;;;2.13;1.92;;;;;;;;;;4998277;28;20097;-30
2023/05/18 09:00:22;;;;;;;2.55;1.90;;;;;;;;;;4981107;28;20353;-27
2023/05/18 09:02:49;;;;;;;2.60;2.13;;;;;;;;;;4998086;28;20057;-31
2023/05/18 09:05:16;;;;;;;2.00;1.52;;;;;;;;;;4998397;28;20445;-32
2023/05/18 09:07:42;;;;;;;1.80;1.50;;;;;;;;;;4998673;28;20319;-30
2023/05/18 09:10:14;;;;;;;2.22;1.63;;;;;;;;;;4998091;28;20033;-33
2023/05/18 09:12:42;;;;;;;2.20;1.98;;;;;;;;;;4998201;28;20026;-32
2023/05/18 09:15:12;;;;;;;3.70;1.65;;;;;;;;;;4997984;28;20031;-28
2023/05/18 09:17:38;;;;;;;2.90;1.90;;;;;;;;;;4997946;28;20046;-31
2023/05/18 09:20:04;;;;;;;2.30;2.10;;;;;;;;;;4997931;28;20054;-30
2023/05/18 09:22:32;;;;;;;1.85;1.75;;;;;;;;;;4997669;28;20124;-31
2023/05/18 09:24:58;;;;;;;2.30;1.67;;;;;;;;;;4980666;28;20034;-29
2023/05/18 09:27:24;;;;;;;2.80;2.08;;;;;;;;;;4998282;28;20026;-31
2023/05/18 09:29:52;;;;;;;2.28;1.80;;;;;;;;;;4997650;28;20019;-31
2023/05/18 09:32:19;;;;;;;5.80;2.35;;;;;;;;;;4997547;28;20041;-31
2023/05/18 09:34:47;;;;;;;1.92;1.83;;;;;;;;;;4997890;28;20026;-32
2023/05/18 09:37:16;;;;;;;2.35;1.70;;;;;;;;;;4997585;28;20029;-26
2023/05/18 09:39:42;;;;;;;2.03;1.92;;;;;;;;;;4997508;28;20058;-28
2023/05/18 09:42:08;;;;;;;2.33;2.13;;;;;;;;;;4997300;28;20109;-28
2023/05/18 09:44:34;;;;;;;2.25;2.05;;;;;;;;;;4997448;28;20030;-30
2023/05/18 09:47:01;;;;;;;2.05;1.85;;;;;;;;;;4997355;28;20019;-27
2023/05/18 09:49:30;;;;;;;3.33;1.92;;;;;;;;;;4981005;28;20172;-31
2023/05/18 09:51:59;;;;;;;2.47;2.08;;;;;;;;;;4997272;28;20361;-32
2023/05/18 09:54:25;;;;;;;2.40;2.17;;;;;;;;;;4997274;28;20031;-29
2023/05/18 09:56:51;;;;;;;2.63;2.25;;;;;;;;;;4997451;28;20097;-33
2023/05/18 09:59:17;;;;;;;2.20;1.52;;;;;;;;;;4997207;28;20034;-30
2023/05/18 10:02:04;;;;;;;2.30;2.10;;;;;;;;;;4996928;28;20034;-30
2023/05/18 10:04:41;;;;;;;2.15;1.85;;;;;;;;;;4997623;28;20034;-27
2023/05/18 10:07:11;;;;;;;2.92;2.20;;;;;;;;;;4997016;28;20031;-28
2023/05/18 10:09:38;;;;;;;2.03;1.83;;;;;;;;;;4996980;28;20025;-30
2023/05/18 10:12:09;;;;;;;2.00;1.83;;;;;;;;;;4996891;28;20038;-30
2023/05/18 10:14:35;;;;;;;;;;;;;;;;;;4997638;28;20044;-29
2023/05/18 10:17:05;;;;;;;2.28;1.92;;;;;;;;;;4996790;28;19906;-29
2023/05/18 10:19:34;;;;;;;1.73;1.50;;;;;;;;;;4996871;28;20481;-27
2023/05/18 10:22:02;;;;;;;2.13;1.92;;;;;;;;;;4996637;28;20377;-31
2023/05/18 10:24:28;;;;;;;2.05;1.90;;;;;;;;;;4996965;28;20416;-31
2023/05/18 10:26:57;;;;;;;1.58;1.48;;;;;;;;;;4996927;28;20026;-31
2023/05/18 10:29:23;;;;;;;2.22;2.03;;;;;;;;;;4996866;28;20018;-30
2023/05/18 10:31:50;;;;;;;1.90;1.80;;;;;;;;;;4996807;28;20129;-29
2023/05/18 10:34:17;;;;;;;3.03;1.73;;;;;;;;;;4996805;28;20405;-27
2023/05/18 10:36:43;;;;;;;2.15;1.95;;;;;;;;;;4996669;28;20056;-30
2023/05/18 10:39:09;;;;;;;1.98;1.77;;;;;;;;;;4996697;28;20037;-27
2023/05/18 10:41:36;;;;;;;3.05;2.03;;;;;;;;;;4996237;28;20085;-28
2023/05/18 10:44:02;;;;;;;1.95;1.75;;;;;;;;;;4996234;28;20049;-31
2023/05/18 10:46:29;;;;;;;3.80;2.78;;;;;;;;;;4996169;28;20034;-31
2023/05/18 10:48:57;;;;;;;2.13;1.92;;;;;;;;;;4996251;28;20022;-29
2023/05/18 10:51:23;;;;;;;2.13;2.03;;;;;;;;;;4996954;28;20464;-28
2023/05/18 10:53:50;;;;;;;2.22;2.10;;;;;;;;;;4996087;28;20125;-30
2023/05/18 10:56:16;;;;;;;1.98;1.88;;;;;;;;;;4996344;28;20042;-30
2023/05/18 10:58:42;;;;;;;2.65;1.88;;;;;;;;;;4995883;28;20085;-29
2023/05/18 11:01:09;;;;;;;1.98;1.75;;;;;;;;;;4978814;28;20457;-30
2023/05/18 11:03:37;;;;;;;1.92;1.77;;;;;;;;;;4995691;28;20109;-32
2023/05/18 11:06:09;;;;;;;2.78;1.85;;;;;;;;;;4996448;28;20385;-29
2023/05/18 11:08:55;;;;;;;4.25;2.50;;;;;;;;;;4996353;28;20026;-29
2023/05/18 11:11:28;;;;;;;2.45;1.85;;;;;;;;;;4996130;28;20026;-31
2023/05/18 11:13:59;;;;;;;2.50;2.30;;;;;;;;;;4978560;28;20026;-29
2023/05/18 11:16:32;;;;;;;1.90;1.80;;;;;;;;;;4996057;28;20030;-28
2023/05/18 11:19:04;;;;;;;2.65;2.45;;;;;;;;;;4995959;28;20033;-30
2023/05/18 11:21:49;;;;;;;2.78;1.95;;;;;;;;;;4996147;28;20108;-30
2023/05/18 11:24:15;;;;;;;3.58;1.92;;;;;;;;;;4995914;28;20018;-32
2023/05/18 11:26:42;;;;;;;2.65;1.70;;;;;;;;;;4995849;28;20054;-28
2023/05/18 11:29:18;;;;;;;2.50;2.20;;;;;;;;;;4995563;28;20022;-31
2023/05/18 11:31:48;;;;;;;2.45;2.30;;;;;;;;;;4995700;28;20041;-30
2023/05/18 11:34:35;;;;;;;3.30;1.67;;;;;;;;;;4995557;28;20065;-30
2023/05/18 11:37:01;;;;;;;2.20;2.00;;;;;;;;;;4995752;28;20030;-26
2023/05/18 11:39:27;;;;;;;1.80;1.70;;;;;;;;;;4995449;28;20050;-27
2023/05/18 11:42:10;;;;;;;2.42;2.05;;;;;;;;;;4995256;28;20037;-31
2023/05/18 11:44:38;;;;;;;2.50;1.80;;;;;;;;;;4995326;28;20026;-28
2023/05/18 11:47:07;;;;;;;2.25;2.00;;;;;;;;;;4995577;28;20341;-30
2023/05/18 11:49:37;;;;;;;2.75;2.40;;;;;;;;;;4995288;28;20112;-29
2023/05/18 11:52:07;;;;;;;2.08;1.88;;;;;;;;;;4995721;28;20114;-30
2023/05/18 11:54:40;;;;;;;2.00;1.88;;;;;;;;;;4978377;28;20034;-30
2023/05/18 11:57:06;;;;;;;2.03;1.73;;;;;;;;;;4995187;28;20042;-31
2023/05/18 11:59:42;;;;;;;2.22;2.00;;;;;;;;;;4995455;28;20027;-27
2023/05/18 12:02:10;;;;;;;1.98;1.77;;;;;;;;;;4994928;28;20441;-31
2023/05/18 12:04:42;;;;;;;1.73;1.63;;;;;;;;;;4995396;28;20109;-28
2023/05/18 12:07:08;;;;;;;2.17;1.70;;;;;;;;;;4995175;28;20030;-29
2023/05/18 12:09:35;;;;;;;1.80;1.70;;;;;;;;;;4995842;28;20030;-30
2023/05/18 12:12:01;;;;;;;1.63;1.52;;;;;;;;;;4981958;28;20030;-27
2023/05/18 12:14:28;;;;;;;3.00;2.22;;;;;;;;;;4999116;28;20026;-31
2023/05/18 12:16:57;;;;;;;2.22;1.83;;;;;;;;;;4999033;28;20026;-32
2023/05/18 12:19:23;;;;;;;2.00;1.80;;;;;;;;;;4998969;28;20026;-30
2023/05/18 12:21:50;;;;;;;1.65;1.55;;;;;;;;;;4999146;28;20345;-30
2023/05/18 12:24:16;;;;;;;2.05;1.90;;;;;;;;;;4998856;28;20041;-29
2023/05/18 12:26:45;;;;;;;1.67;1.58;;;;;;;;;;4998932;28;20029;-29
2023/05/18 12:29:13;;;;;;;2.03;1.85;;;;;;;;;;4998751;28;20030;-33
2023/05/18 12:31:41;;;;;;;2.17;1.90;;;;;;;;;;4999031;28;20030;-26
2023/05/18 12:34:09;;;;;;;2.17;1.88;;;;;;;;;;4998660;28;20030;-32
2023/05/18 12:36:40;;;;;;;2.35;2.15;;;;;;;;;;4998915;28;20026;-29
2023/05/18 12:39:07;;;;;;;1.70;1.60;;;;;;;;;;4998704;28;20026;-28
2023/05/18 12:41:33;;;;;;;2.38;2.17;;;;;;;;;;4981357;28;20030;-30
2023/05/18 12:44:00;;;;;;;1.75;1.65;;;;;;;;;;4998528;28;20468;-31
2023/05/18 12:46:26;;;;;;;2.28;2.08;;;;;;;;;;4998517;28;20038;-29
2023/05/18 12:48:57;;;;;;;2.17;1.67;;;;;;;;;;4981317;28;20092;-31
2023/05/18 12:51:29;;;;;;;2.13;1.88;;;;;;;;;;4998705;28;20125;-28
2023/05/18 12:53:56;;;;;;;1.95;1.85;;;;;;;;;;4998579;28;20134;-29
2023/05/18 12:56:24;;;;;;;1.70;1.60;;;;;;;;;;4998322;28;20030;-31
2023/05/18 12:58:57;;;;;;;2.95;2.20;;;;;;;;;;4998314;28;20348;-26
2023/05/18 13:01:23;;;;;;;2.30;1.90;;;;;;;;;;4998494;28;20022;-27
2023/05/18 13:03:55;;;;;;;2.13;1.65;;;;;;;;;;4998081;28;20047;-28
2023/05/18 13:06:21;;;;;;;2.67;1.75;;;;;;;;;;4998503;28;20065;-28
2023/05/18 13:08:47;;;;;;;2.90;2.20;;;;;;;;;;4998623;28;20022;-32
2023/05/18 13:11:15;;;;;;;1.85;1.63;;;;;;;;;;4998374;28;20445;-29
2023/05/18 13:14:00;;;;;;;2.20;1.70;;;;;;;;;;4998229;28;20034;-31
2023/05/18 13:16:28;;;;;;;1.70;1.60;;;;;;;;;;4980788;28;20473;-30
2023/05/18 13:18:55;;;;;;;1.75;1.65;;;;;;;;;;4998172;28;20365;-27
2023/05/18 13:21:21;;;;;;;1.77;1.60;;;;;;;;;;4997060;28;20026;-33
2023/05/18 13:23:47;;;;;;;2.55;2.00;;;;;;;;;;4997789;28;20045;-31
2023/05/18 13:26:14;;;;;;;2.00;1.90;;;;;;;;;;4998072;28;20026;-31
2023/05/18 13:28:40;;;;;;;1.90;1.73;;;;;;;;;;4997754;28;20026;-28
2023/05/18 13:31:06;;;;;;;2.17;1.48;;;;;;;;;;4997760;28;20041;-30
2023/05/18 13:33:32;;;;;;;3.20;1.70;;;;;;;;;;4997631;28;20041;-31
2023/05/18 13:35:58;;;;;;;1.77;1.65;;;;;;;;;;4997663;28;20377;-29
2023/05/18 13:38:24;;;;;;;2.65;2.08;;;;;;;;;;4997614;28;20365;-30
2023/05/18 13:40:50;;;;;;;3.00;1.85;;;;;;;;;;4997500;28;20054;-29
2023/05/18 13:43:16;;;;;;;1.73;1.63;;;;;;;;;;4997539;28;20034;-30
2023/05/18 13:45:43;;;;;;;2.00;1.85;;;;;;;;;;4997483;28;20092;-32
2023/05/18 13:48:09;;;;;;;2.17;1.98;;;;;;;;;;4980271;28;20453;-30
2023/05/18 13:50:35;;;;;;;2.00;1.80;;;;;;;;;;4997369;28;20030;-31
2023/05/18 13:53:01;;;;;;;2.55;1.73;;;;;;;;;;4997287;28;20019;-27
2023/05/18 13:55:27;;;;;;;2.13;1.95;;;;;;;;;;4997306;28;20132;-30
2023/05/18 13:57:53;;;;;;;2.55;2.35;;;;;;;;;;4997488;28;20397;-32
2023/05/18 14:00:20;;;;;;;2.60;2.40;;;;;;;;;;4997119;28;20433;-28
2023/05/18 14:02:46;;;;;;;2.00;1.80;;;;;;;;;;4996938;28;20064;-30
2023/05/18 14:05:13;;;;;;;2.55;2.20;;;;;;;;;;4997368;28;20088;-30
2023/05/18 14:07:40;;;;;;;2.05;1.90;;;;;;;;;;4997059;28;20085;-31
2023/05/18 14:10:07;;;;;;;2.63;2.42;;;;;;;;;;4997302;28;20022;-29
2023/05/18 14:12:33;;;;;;;1.85;1.75;;;;;;;;;;4997116;28;20369;-31
2023/05/18 14:15:00;;;;;;;1.50;1.40;;;;;;;;;;4996927;28;20093;-30
2023/05/18 14:17:26;;;;;;;2.13;1.92;;;;;;;;;;4996802;28;20040;-28
2023/05/18 14:19:52;;;;;;;2.10;1.88;;;;;;;;;;4997056;28;20365;-29
2023/05/18 14:22:20;;;;;;;2.35;1.90;;;;;;;;;;4996896;28;20022;-32
2023/05/18 14:24:47;;;;;;;2.60;1.80;;;;;;;;;;4979601;28;20113;-30
2023/05/18 14:27:13;;;;;;;2.00;1.90;;;;;;;;;;4996983;28;20354;-29
2023/05/18 14:29:39;;;;;;;2.17;2.08;;;;;;;;;;4996941;28;20037;-31
2023/05/18 14:32:05;;;;;;;2.30;2.08;;;;;;;;;;4996582;28;20030;-29
2023/05/18 14:34:32;;;;;;;2.55;2.35;;;;;;;;;;4995525;28;20454;-31
2023/05/18 14:36:58;;;;;;;2.00;1.80;;;;;;;;;;4996532;28;20034;-30
2023/05/18 14:39:24;;;;;;;2.55;2.35;;;;;;;;;;4996402;28;20027;-29
2023/05/18 14:41:50;;;;;;;1.90;1.70;;;;;;;;;;4996752;28;20085;-31
2023/05/18 14:44:16;;;;;;;2.08;1.95;;;;;;;;;;4996607;28;20409;-30
2023/05/18 14:46:43;;;;;;;2.38;2.03;;;;;;;;;;4996321;28;20026;-31
2023/05/18 14:49:09;;;;;;;1.95;1.85;;;;;;;;;;4996532;28;20026;-27